Time;durP1;ratioP1;P1;durP2;ratioP2;P2;SDS_P1;SDS_P2;PMS_P1;PMS_P2;Temp;Humidity;BMP_temperature;BMP_pressure;BME280_temperature;BME280_humidity;BME280_pressure;Samples;Min_cycle;Max_cycle;Signal;HPM_P1;HPM_P2
2021/09/08 00:02:08;;;;;;;4.03;3.60;;;18.80;76.20;;;;;;10498637;28;20669;-62
2021/09/08 00:07:31;;;;;;;5.87;3.70;;;18.80;76.20;;;;;;10498776;28;20866;-62
2021/09/08 00:12:54;;;;;;;4.17;3.30;;;18.70;76.00;;;;;;10513473;23;20744;-65
2021/09/08 00:18:16;;;;;;;4.37;3.20;;;18.80;76.00;;;;;;10498072;28;20192;-65
2021/09/08 00:23:39;;;;;;;4.33;3.57;;;18.70;75.90;;;;;;10456504;28;20197;-65
2021/09/08 00:29:01;;;;;;;3.90;3.43;;;18.80;75.90;;;;;;10456095;28;20221;-65
2021/09/08 00:34:23;;;;;;;6.00;3.70;;;18.70;75.70;;;;;;10457028;28;20571;-65
2021/09/08 00:39:47;;;;;;;4.07;3.60;;;18.70;75.70;;;;;;10455726;28;20221;-65
2021/09/08 00:45:09;;;;;;;4.43;3.63;;;18.80;75.70;;;;;;10455444;28;20193;-65
2021/09/08 00:50:32;;;;;;;3.80;3.37;;;18.70;75.50;;;;;;10455042;28;20227;-65
2021/09/08 00:55:56;;;;;;;5.13;3.27;;;18.70;75.50;;;;;;10455931;28;20200;-65
2021/09/08 01:01:19;;;;;;;3.87;3.23;;;18.70;75.40;;;;;;10455095;28;20688;-65
2021/09/08 01:06:42;;;;;;;3.90;3.23;;;18.70;75.20;;;;;;10453687;28;20197;-65
2021/09/08 01:12:06;;;;;;;3.70;3.37;;;18.70;75.10;;;;;;10453744;28;20221;-65
2021/09/08 01:17:28;;;;;;;3.80;3.43;;;18.70;75.00;;;;;;10453914;28;20215;-65
2021/09/08 01:22:52;;;;;;;4.10;3.13;;;18.80;74.90;;;;;;10454611;28;20213;-65
2021/09/08 01:28:15;;;;;;;3.37;2.97;;;18.80;74.70;;;;;;10454309;28;20197;-65
2021/09/08 01:33:37;;;;;;;3.67;3.30;;;18.70;74.50;;;;;;10454260;28;20193;-65
2021/09/08 01:39:00;;;;;;;4.23;3.60;;;18.70;74.40;;;;;;10453666;28;20213;-65
2021/09/08 01:44:25;;;;;;;5.33;3.30;;;18.70;74.20;;;;;;10452033;28;20216;-64
2021/09/08 01:49:47;;;;;;;3.43;3.13;;;18.70;74.10;;;;;;10451479;28;20221;-65
2021/09/08 01:55:11;;;;;;;3.43;3.13;;;18.70;74.00;;;;;;10452868;28;20197;-64
2021/09/08 02:00:33;;;;;;;4.63;3.97;;;18.70;73.90;;;;;;10452736;28;20209;-64
2021/09/08 02:05:55;;;;;;;4.47;4.07;;;18.70;73.80;;;;;;10452564;28;20687;-65
2021/09/08 02:11:19;;;;;;;4.03;3.60;;;18.70;73.70;;;;;;10451586;28;20212;-65
2021/09/08 02:16:41;;;;;;;5.27;3.50;;;18.70;73.60;;;;;;10451541;28;20595;-65
2021/09/08 02:22:04;;;;;;;6.30;3.43;;;18.70;73.50;;;;;;10452307;28;20209;-65
2021/09/08 02:27:27;;;;;;;3.90;3.50;;;18.70;73.30;;;;;;10451908;28;20196;-65
2021/09/08 02:32:50;;;;;;;4.23;3.53;;;18.70;73.30;;;;;;10451121;28;20221;-65
2021/09/08 02:38:12;;;;;;;4.63;3.60;;;18.70;73.10;;;;;;10452538;28;20204;-64
2021/09/08 02:43:36;;;;;;;4.43;3.73;;;18.70;73.10;;;;;;10449567;28;20652;-65
2021/09/08 02:48:58;;;;;;;4.90;3.70;;;18.70;73.00;;;;;;10450708;28;20611;-65
2021/09/08 02:54:20;;;;;;;4.47;3.90;;;18.70;72.90;;;;;;10451952;28;20197;-65
2021/09/08 02:59:44;;;;;;;4.07;3.67;;;18.70;72.80;;;;;;10450725;28;20224;-65
2021/09/08 03:05:07;;;;;;;4.07;3.47;;;18.70;72.70;;;;;;10451442;28;20572;-65
2021/09/08 03:10:30;;;;;;;4.63;3.57;;;18.70;72.50;;;;;;10448897;28;20224;-67
2021/09/08 03:15:54;;;;;;;5.00;4.10;;;18.70;72.40;;;;;;10448555;28;20208;-65
2021/09/08 03:21:16;;;;;;;4.17;3.77;;;18.70;72.30;;;;;;10449804;28;20824;-66
2021/09/08 03:26:38;;;;;;;4.30;3.90;;;18.70;72.20;;;;;;10448695;28;20660;-66
2021/09/08 03:32:03;;;;;;;4.23;3.73;;;18.70;72.10;;;;;;10449261;28;20587;-66
2021/09/08 03:37:25;;;;;;;5.03;3.53;;;18.70;72.00;;;;;;10450294;28;20452;-65
2021/09/08 03:42:47;;;;;;;5.10;4.10;;;18.70;71.70;;;;;;10448028;28;20714;-65
2021/09/08 03:48:11;;;;;;;5.67;4.47;;;18.60;71.50;;;;;;10449729;28;20599;-64
2021/09/08 03:53:33;;;;;;;6.80;4.70;;;18.60;71.20;;;;;;10445748;28;20201;-64
2021/09/08 03:58:55;;;;;;;4.83;4.10;;;18.70;71.10;;;;;;10446200;28;20217;-64
2021/09/08 04:04:18;;;;;;;4.40;4.00;;;18.60;70.90;;;;;;10446032;28;20193;-64
2021/09/08 04:09:41;;;;;;;5.17;4.53;;;18.60;70.70;;;;;;10448729;28;20209;-64
2021/09/08 04:15:03;;;;;;;4.97;4.17;;;18.60;70.60;;;;;;10453630;28;20219;-64
2021/09/08 04:20:27;;;;;;;6.47;5.10;;;18.60;70.50;;;;;;10455828;28;20587;-65
2021/09/08 04:25:49;;;;;;;5.10;4.37;;;18.60;70.40;;;;;;10456907;28;20296;-64
2021/09/08 04:31:11;;;;;;;6.20;4.50;;;18.60;70.30;;;;;;10455040;28;20225;-64
2021/09/08 04:36:35;;;;;;;6.40;4.57;;;18.60;70.20;;;;;;10451188;28;20212;-64
2021/09/08 04:41:57;;;;;;;4.83;4.20;;;18.60;70.20;;;;;;10454877;28;20216;-64
2021/09/08 04:47:19;;;;;;;6.70;4.30;;;18.60;70.10;;;;;;10454809;28;20200;-66
2021/09/08 04:52:43;;;;;;;5.13;4.50;;;18.60;69.90;;;;;;10452934;28;20591;-67
2021/09/08 04:58:06;;;;;;;5.03;4.43;;;18.60;69.80;;;;;;10455989;28;20208;-64
2021/09/08 05:03:28;;;;;;;4.70;4.13;;;18.60;69.70;;;;;;10455217;28;20326;-67
2021/09/08 05:08:51;;;;;;;4.70;4.20;;;18.60;69.60;;;;;;10453421;28;20199;-65
2021/09/08 05:14:13;;;;;;;5.03;4.37;;;18.60;69.50;;;;;;10453880;28;20212;-64
2021/09/08 05:19:35;;;;;;;6.00;4.57;;;18.50;69.40;;;;;;10454592;28;20213;-65
2021/09/08 05:24:59;;;;;;;5.30;4.80;;;18.60;69.40;;;;;;10453408;28;20200;-64
2021/09/08 05:30:21;;;;;;;5.17;4.60;;;18.60;69.40;;;;;;10453481;28;20213;-65
2021/09/08 05:35:43;;;;;;;5.70;4.83;;;18.60;69.50;;;;;;10455152;28;20196;-65
2021/09/08 05:41:09;;;;;;;6.63;4.87;;;18.50;69.50;;;;;;10453708;28;20209;-65
2021/09/08 05:46:31;;;;;;;6.73;5.13;;;18.60;69.60;;;;;;10415306;28;20576;-66
2021/09/08 05:51:53;;;;;;;5.70;4.90;;;18.50;69.50;;;;;;10448363;28;20702;-65
2021/09/08 05:57:16;;;;;;;5.30;4.63;;;18.60;69.70;;;;;;10450840;28;20201;-64
2021/09/08 06:02:39;;;;;;;4.93;4.47;;;18.50;69.80;;;;;;10443661;28;20380;-67
2021/09/08 06:08:01;;;;;;;5.80;4.90;;;18.60;70.00;;;;;;10440968;28;20205;-66
2021/09/08 06:13:24;;;;;;;6.10;4.30;;;18.60;70.30;;;;;;10508864;22;20254;-53
2021/09/08 06:18:46;;;;;;;5.43;4.33;;;18.50;70.60;;;;;;10531445;28;20199;-55
2021/09/08 06:24:10;;;;;;;7.23;4.53;;;18.60;71.10;;;;;;10551908;28;20230;-55
2021/09/08 06:29:33;;;;;;;7.17;5.60;;;18.60;71.40;;;;;;10550626;28;20229;-61
2021/09/08 06:34:56;;;;;;;6.47;5.23;;;18.60;71.70;;;;;;10541483;28;20227;-57
2021/09/08 06:40:18;;;;;;;6.03;5.37;;;18.60;71.70;;;;;;10535246;28;20223;-58
2021/09/08 06:45:41;;;;;;;7.00;5.60;;;18.60;71.70;;;;;;10548315;28;20191;-59
2021/09/08 06:51:03;;;;;;;6.17;5.13;;;18.60;71.90;;;;;;10534463;28;20227;-57
2021/09/08 06:56:25;;;;;;;6.27;5.13;;;18.60;72.20;;;;;;10542424;28;20200;-53
2021/09/08 07:01:49;;;;;;;6.80;5.10;;;18.60;72.20;;;;;;10541599;28;20216;-55
2021/09/08 07:07:11;;;;;;;7.60;5.67;;;18.60;72.20;;;;;;10568164;28;20289;-55
2021/09/08 07:12:33;;;;;;;6.13;5.27;;;18.60;72.30;;;;;;10547253;28;20226;-56
2021/09/08 07:17:57;;;;;;;5.87;4.73;;;18.60;72.60;;;;;;10576886;28;20201;-56
2021/09/08 07:23:19;;;;;;;7.07;5.77;;;18.60;72.80;;;;;;10576094;28;20268;-56
2021/09/08 07:28:41;;;;;;;6.20;5.20;;;18.60;73.00;;;;;;10556959;28;20199;-55
2021/09/08 07:34:04;;;;;;;7.13;5.93;;;18.60;73.10;;;;;;10543708;28;20223;-55
2021/09/08 07:39:26;;;;;;;6.30;5.47;;;18.60;73.30;;;;;;10551423;28;20769;-55
2021/09/08 07:44:48;;;;;;;6.23;5.40;;;18.60;73.60;;;;;;10576313;28;20607;-59
2021/09/08 07:50:12;;;;;;;6.23;5.20;;;18.60;73.80;;;;;;10578597;28;20222;-56
2021/09/08 07:55:34;;;;;;;7.30;5.80;;;18.60;73.70;;;;;;10573743;28;20207;-60
2021/09/08 08:00:57;;;;;;;7.47;5.90;;;18.70;74.10;;;;;;10560356;28;20579;-57
2021/09/08 08:06:20;;;;;;;6.67;5.13;;;18.60;74.10;;;;;;10584068;28;20198;-59
2021/09/08 08:11:42;;;;;;;6.67;5.97;;;18.70;74.40;;;;;;10582739;28;20706;-56
2021/09/08 08:17:05;;;;;;;6.70;6.00;;;18.60;74.60;;;;;;10573941;28;20691;-56
2021/09/08 08:22:28;;;;;;;7.27;6.23;;;18.70;75.00;;;;;;10582697;28;20218;-57
2021/09/08 08:27:50;;;;;;;6.70;6.07;;;18.70;75.20;;;;;;10541535;28;20196;-61
2021/09/08 08:33:13;;;;;;;7.30;5.60;;;18.70;75.40;;;;;;10576099;28;20219;-62
2021/09/08 08:38:36;;;;;;;5.90;5.10;;;18.70;75.30;;;;;;10581289;28;20206;-63
2021/09/08 08:43:58;;;;;;;6.70;5.97;;;18.70;75.40;;;;;;10576460;28;20224;-65
2021/09/08 08:49:21;;;;;;;6.50;5.47;;;18.80;75.30;;;;;;10580569;28;20565;-64
2021/09/08 08:54:44;;;;;;;11.07;6.10;;;18.90;75.10;;;;;;10581771;28;20285;-64
2021/09/08 09:00:07;;;;;;;7.40;5.47;;;19.00;74.80;;;;;;10571566;27;20202;-64
2021/09/08 09:05:33;;;;;;;8.03;5.73;;;19.00;74.90;;;;;;10561311;28;20610;-65
2021/09/08 09:10:58;;;;;;;6.20;5.60;;;18.90;75.00;;;;;;10579893;28;20218;-64
2021/09/08 09:16:25;;;;;;;7.73;5.77;;;18.90;75.10;;;;;;10559329;28;20590;-64
2021/09/08 09:21:47;;;;;;;7.20;6.10;;;18.90;75.20;;;;;;10578061;27;20582;-66
2021/09/08 09:27:13;;;;;;;7.50;6.27;;;18.90;75.50;;;;;;10545216;28;20195;-63
2021/09/08 09:32:37;;;;;;;7.10;6.00;;;18.90;75.70;;;;;;10537987;28;20223;-64
2021/09/08 09:38:02;;;;;;;7.23;5.87;;;18.90;75.70;;;;;;10538297;28;20203;-62
2021/09/08 09:43:31;;;;;;;7.77;5.20;;;18.80;75.90;;;;;;10577692;28;20215;-63
2021/09/08 09:48:53;;;;;;;7.03;6.00;;;18.80;76.00;;;;;;10578563;28;20198;-62
2021/09/08 09:54:18;;;;;;;7.10;5.23;;;18.80;76.10;;;;;;10565169;28;20219;-63
2021/09/08 09:59:42;;;;;;;5.30;4.80;;;18.70;76.10;;;;;;10548559;28;20841;-62
2021/09/08 10:05:05;;;;;;;6.03;5.10;;;18.70;76.20;;;;;;10577878;28;20348;-62
2021/09/08 10:10:31;;;;;;;5.77;5.17;;;18.70;76.20;;;;;;10562396;28;20238;-63
2021/09/08 10:15:55;;;;;;;5.30;4.80;;;18.80;76.80;;;;;;10536648;28;20196;-62
2021/09/08 10:21:19;;;;;;;5.50;4.87;;;18.70;76.20;;;;;;10535732;28;20211;-62
2021/09/08 10:26:41;;;;;;;5.90;5.03;;;18.80;76.40;;;;;;10536250;28;20664;-65
2021/09/08 10:32:06;;;;;;;4.90;4.30;;;18.70;76.30;;;;;;10555693;28;20770;-66
2021/09/08 10:37:28;;;;;;;5.67;4.67;;;18.70;76.30;;;;;;10575463;28;20226;-65
2021/09/08 10:42:54;;;;;;;4.83;4.33;;;18.70;76.30;;;;;;10574864;28;20219;-66
2021/09/08 10:48:36;;;;;;;5.57;4.43;;;18.80;76.40;;;;;;10560493;28;20205;-66
2021/09/08 10:54:02;;;;;;;6.93;5.20;;;18.80;76.20;;;;;;10555405;28;20223;-65
2021/09/08 10:59:25;;;;;;;7.87;6.00;;;18.80;76.30;;;;;;10555620;28;20210;-65
2021/09/08 11:04:59;;;;;;;8.73;5.60;;;18.80;76.30;;;;;;10558265;28;20214;-65
2021/09/08 11:10:27;;;;;;;6.80;5.77;;;18.80;76.10;;;;;;10566621;28;20207;-65
2021/09/08 11:15:49;;;;;;;7.50;5.70;;;18.80;76.20;;;;;;10559569;28;20679;-64
2021/09/08 11:21:12;;;;;;;6.90;5.53;;;18.80;76.10;;;;;;10568801;28;20607;-64
2021/09/08 11:26:36;;;;;;;6.27;5.43;;;18.80;76.20;;;;;;10592285;28;20187;-63
2021/09/08 11:31:58;;;;;;;6.83;5.03;;;18.80;76.20;;;;;;10575568;28;20219;-64
2021/09/08 11:37:22;;;;;;;8.53;5.50;;;18.80;76.20;;;;;;10584969;28;20199;-66
2021/09/08 11:42:44;;;;;;;7.63;5.07;;;18.80;76.30;;;;;;10584359;28;20207;-65
2021/09/08 11:48:07;;;;;;;10.07;5.77;;;18.80;76.40;;;;;;10585206;28;20213;-66
2021/09/08 11:53:30;;;;;;;9.90;5.53;;;18.80;76.50;;;;;;10582485;28;20211;-65
2021/09/08 11:58:54;;;;;;;9.63;5.77;;;18.80;76.60;;;;;;10564484;28;20598;-67
2021/09/08 12:04:17;;;;;;;10.37;6.13;;;18.80;76.70;;;;;;10583972;28;20219;-66
2021/09/08 12:09:43;;;;;;;11.60;5.87;;;18.90;76.90;;;;;;10582185;28;20195;-66
2021/09/08 12:15:06;;;;;;;10.40;6.20;;;18.80;76.70;;;;;;10558930;22;20742;-70
2021/09/08 12:20:28;;;;;;;11.37;5.73;;;18.90;76.70;;;;;;10533885;28;20525;-70
2021/09/08 12:26:08;;;;;;;7.80;5.77;;;18.90;76.70;;;;;;10577240;27;20211;-70
2021/09/08 12:31:30;;;;;;;7.87;5.47;;;18.90;76.60;;;;;;10551348;28;20260;-70
2021/09/08 12:36:52;;;;;;;7.53;5.20;;;18.90;76.80;;;;;;10573085;28;20198;-70
2021/09/08 12:42:23;;;;;;;10.00;5.70;;;18.90;76.60;;;;;;10543428;28;20219;-70
2021/09/08 12:47:55;;;;;;;8.43;5.30;;;18.90;76.60;;;;;;10552799;28;20191;-70
2021/09/08 12:53:17;;;;;;;6.27;4.97;;;18.90;76.60;;;;;;10571102;28;20215;-69
2021/09/08 12:58:42;;;;;;;6.97;4.90;;;18.90;76.50;;;;;;10567340;28;20217;-70
2021/09/08 13:04:04;;;;;;;5.67;4.70;;;18.90;76.40;;;;;;10576720;28;20219;-69
2021/09/08 13:09:28;;;;;;;6.60;4.80;;;18.90;76.40;;;;;;10543723;28;20207;-70
2021/09/08 13:14:52;;;;;;;7.13;4.70;;;18.90;76.40;;;;;;10541855;28;20779;-70
2021/09/08 13:20:14;;;;;;;5.57;4.60;;;18.90;76.30;;;;;;10563201;28;20206;-70
2021/09/08 13:25:36;;;;;;;5.77;4.47;;;18.90;76.20;;;;;;10575656;28;20211;-70
2021/09/08 13:30:59;;;;;;;6.50;4.93;;;18.90;76.20;;;;;;10580206;28;20225;-71
2021/09/08 13:36:22;;;;;;;6.10;4.87;;;18.90;76.20;;;;;;10578773;28;20206;-70
2021/09/08 13:41:44;;;;;;;5.30;4.53;;;18.90;76.20;;;;;;10579488;28;20207;-71
2021/09/08 13:47:07;;;;;;;5.67;4.70;;;18.90;76.20;;;;;;10563799;27;20194;-70
2021/09/08 13:52:29;;;;;;;7.23;4.83;;;18.90;76.20;;;;;;10577070;28;20223;-69
2021/09/08 13:57:51;;;;;;;5.27;4.60;;;18.90;76.00;;;;;;10567632;28;20192;-69
2021/09/08 14:03:15;;;;;;;5.60;4.43;;;18.90;75.90;;;;;;10576252;28;20717;-70
2021/09/08 14:08:37;;;;;;;5.30;4.13;;;18.90;75.90;;;;;;10556776;28;20277;-69
2021/09/08 14:14:00;;;;;;;5.60;4.93;;;18.90;75.70;;;;;;10576967;28;20439;-67
2021/09/08 14:19:23;;;;;;;5.03;4.37;;;19.00;75.70;;;;;;10566600;28;20206;-69
2021/09/08 14:24:45;;;;;;;6.93;4.93;;;19.00;75.60;;;;;;10578774;28;20454;-69
2021/09/08 14:30:09;;;;;;;7.70;4.27;;;19.30;74.40;;;;;;10549229;28;20196;-69
2021/09/08 14:35:33;;;;;;;5.33;3.73;;;19.20;74.70;;;;;;10535369;28;20604;-70
2021/09/08 14:40:55;;;;;;;5.13;3.80;;;19.10;75.00;;;;;;10557776;28;20469;-70
2021/09/08 14:46:19;;;;;;;6.40;4.13;;;19.00;75.00;;;;;;10576660;28;20200;-71
2021/09/08 14:51:42;;;;;;;4.50;3.67;;;19.00;74.80;;;;;;10577504;28;20215;-71
2021/09/08 14:57:05;;;;;;;5.00;4.07;;;19.00;74.80;;;;;;10577551;28;20223;-71
2021/09/08 15:02:27;;;;;;;4.77;4.13;;;19.00;74.40;;;;;;10544197;28;20219;-71
2021/09/08 15:07:50;;;;;;;4.10;3.63;;;19.00;74.10;;;;;;10537759;27;20199;-71
2021/09/08 15:13:12;;;;;;;5.03;3.63;;;19.00;74.20;;;;;;10533089;28;20216;-71
2021/09/08 15:18:35;;;;;;;3.80;3.40;;;19.00;74.00;;;;;;10532513;28;20191;-70
2021/09/08 15:23:58;;;;;;;6.07;3.63;;;19.00;74.00;;;;;;10568172;28;20210;-69
2021/09/08 15:29:20;;;;;;;4.90;4.00;;;19.00;74.10;;;;;;10575031;28;20678;-71
2021/09/08 15:34:42;;;;;;;7.20;4.03;;;19.00;74.10;;;;;;10546813;28;20215;-70
2021/09/08 15:40:07;;;;;;;5.20;3.90;;;19.00;74.30;;;;;;10531922;28;20469;-70
2021/09/08 15:45:30;;;;;;;4.97;4.03;;;19.00;74.30;;;;;;10528691;28;20215;-70
2021/09/08 15:50:52;;;;;;;4.40;3.83;;;19.00;74.40;;;;;;10549466;28;20202;-71
2021/09/08 15:56:15;;;;;;;5.10;3.87;;;19.00;74.40;;;;;;10568792;28;20192;-71
2021/09/08 16:01:37;;;;;;;4.37;3.77;;;19.00;74.40;;;;;;10558125;28;20594;-70
2021/09/08 16:06:59;;;;;;;4.13;3.43;;;19.00;74.40;;;;;;10543920;28;20191;-69
2021/09/08 16:12:26;;;;;;;4.00;3.60;;;19.00;74.30;;;;;;10536386;28;20230;-71
2021/09/08 16:17:48;;;;;;;5.37;3.97;;;19.00;74.20;;;;;;10541361;28;20196;-70
2021/09/08 16:23:10;;;;;;;3.80;3.13;;;19.00;74.20;;;;;;10540867;28;20216;-71
2021/09/08 16:28:34;;;;;;;4.60;3.53;;;19.00;73.90;;;;;;10556213;28;20191;-70
2021/09/08 16:33:57;;;;;;;4.63;3.53;;;19.00;74.00;;;;;;10571798;28;20214;-72
2021/09/08 16:39:19;;;;;;;3.77;3.47;;;19.00;74.10;;;;;;10579661;28;20226;-70
2021/09/08 16:44:42;;;;;;;4.20;3.80;;;19.00;74.30;;;;;;10581085;28;20215;-71
2021/09/08 16:50:06;;;;;;;3.90;3.47;;;19.00;74.30;;;;;;10580488;28;20194;-72
2021/09/08 16:55:28;;;;;;;3.97;3.67;;;19.00;74.50;;;;;;10579778;28;20225;-70
2021/09/08 17:00:52;;;;;;;3.67;3.37;;;19.00;74.60;;;;;;10578921;28;20198;-70
2021/09/08 17:06:14;;;;;;;3.93;3.47;;;19.00;74.80;;;;;;10578266;28;20202;-73
2021/09/08 17:11:36;;;;;;;4.07;3.60;;;19.00;74.90;;;;;;10580143;28;20215;-70
2021/09/08 17:16:59;;;;;;;4.00;3.57;;;19.00;75.00;;;;;;10575933;28;20191;-70
2021/09/08 17:22:22;;;;;;;4.60;3.90;;;19.00;75.10;;;;;;10575811;28;20211;-70
2021/09/08 17:27:44;;;;;;;4.40;3.50;;;19.00;75.10;;;;;;10572734;28;20191;-71
2021/09/08 17:33:08;;;;;;;6.27;4.00;;;19.00;75.20;;;;;;10572073;28;20219;-70
2021/09/08 17:38:30;;;;;;;5.37;4.10;;;19.10;75.30;;;;;;10574718;28;20199;-71
2021/09/08 17:43:52;;;;;;;6.53;3.93;;;19.00;75.30;;;;;;10572980;28;20203;-71
2021/09/08 17:49:16;;;;;;;5.73;3.83;;;19.00;75.30;;;;;;10574187;28;20222;-72
2021/09/08 17:54:38;;;;;;;6.13;3.90;;;19.10;75.50;;;;;;10561959;28;20223;-70
2021/09/08 18:00:00;;;;;;;5.70;3.70;;;19.00;75.40;;;;;;10552434;28;20211;-71
2021/09/08 18:05:23;;;;;;;5.83;3.60;;;19.10;75.40;;;;;;10577892;28;20222;-71
2021/09/08 18:10:46;;;;;;;5.80;4.20;;;19.10;75.50;;;;;;10577168;28;20187;-70
2021/09/08 18:16:08;;;;;;;4.47;3.70;;;19.10;75.40;;;;;;10481370;22;20622;-66
2021/09/08 18:21:34;;;;;;;5.43;4.40;;;19.10;75.40;;;;;;10400064;28;20202;-66
2021/09/08 18:26:56;;;;;;;5.60;4.20;;;19.10;75.50;;;;;;10372967;28;20238;-66
2021/09/08 18:32:20;;;;;;;4.23;3.80;;;19.10;75.40;;;;;;10411824;28;20641;-66
2021/09/08 18:37:47;;;;;;;6.03;4.67;;;19.10;75.50;;;;;;10410063;28;20287;-66
2021/09/08 18:43:09;;;;;;;5.43;4.30;;;19.10;75.50;;;;;;10412130;28;20288;-67
2021/09/08 18:48:31;;;;;;;4.20;3.23;;;19.10;75.50;;;;;;10412920;28;20571;-66
2021/09/08 18:53:56;;;;;;;4.70;3.90;;;19.10;75.60;;;;;;10417406;28;20217;-67
2021/09/08 18:59:18;;;;;;;5.33;3.90;;;19.10;75.60;;;;;;10409400;28;20205;-66
2021/09/08 19:04:40;;;;;;;5.63;4.07;;;19.10;75.60;;;;;;10419792;28;20206;-66
2021/09/08 19:10:05;;;;;;;5.83;4.17;;;19.10;75.60;;;;;;10421490;28;20562;-65
2021/09/08 19:15:27;;;;;;;5.20;4.17;;;19.10;75.70;;;;;;10431225;28;20217;-67
2021/09/08 19:20:49;;;;;;;4.47;4.00;;;19.10;75.70;;;;;;10450936;28;20685;-67
2021/09/08 19:26:13;;;;;;;4.37;3.93;;;19.10;75.70;;;;;;10450325;28;20228;-65
2021/09/08 19:31:35;;;;;;;5.43;3.87;;;19.10;75.70;;;;;;10449533;28;20201;-67
2021/09/08 19:36:57;;;;;;;6.33;3.87;;;19.10;75.70;;;;;;10448992;28;20689;-66
2021/09/08 19:42:20;;;;;;;6.03;4.23;;;19.10;75.80;;;;;;10449610;28;20197;-67
2021/09/08 19:47:44;;;;;;;4.70;4.07;;;19.10;75.70;;;;;;10459485;28;20216;-67
2021/09/08 19:53:07;;;;;;;4.83;3.93;;;19.10;75.80;;;;;;10466199;28;20223;-67
2021/09/08 19:58:30;;;;;;;5.33;4.13;;;19.10;75.80;;;;;;10469100;28;20193;-66
2021/09/08 20:03:52;;;;;;;4.60;3.57;;;19.10;75.80;;;;;;10500277;28;20281;-67
2021/09/08 20:09:15;;;;;;;4.97;4.00;;;19.10;75.80;;;;;;10500116;28;20207;-65
2021/09/08 20:14:39;;;;;;;5.13;4.20;;;19.10;75.80;;;;;;10458772;28;20240;-67
2021/09/08 20:20:02;;;;;;;5.43;4.33;;;19.10;75.80;;;;;;10458584;28;20208;-65
2021/09/08 20:25:24;;;;;;;5.23;4.20;;;19.10;75.70;;;;;;10457462;28;20278;-66
2021/09/08 20:30:48;;;;;;;5.23;4.17;;;19.10;75.70;;;;;;10457004;28;20684;-67
2021/09/08 20:36:10;;;;;;;5.30;4.07;;;19.10;75.70;;;;;;10461672;28;20540;-66
2021/09/08 20:41:32;;;;;;;5.90;4.40;;;19.10;75.70;;;;;;10459055;28;20654;-67
2021/09/08 20:46:55;;;;;;;5.13;4.60;;;19.10;75.70;;;;;;10457112;28;20232;-67
2021/09/08 20:52:17;;;;;;;4.70;4.20;;;19.10;75.70;;;;;;10457960;28;20589;-67
2021/09/08 20:57:40;;;;;;;5.57;4.03;;;19.10;75.70;;;;;;10443246;28;20228;-67
2021/09/08 21:03:03;;;;;;;4.73;4.23;;;19.10;75.70;;;;;;10415008;28;20190;-65
2021/09/08 21:08:25;;;;;;;4.87;4.33;;;19.00;75.70;;;;;;10472328;28;20551;-66
2021/09/08 21:13:47;;;;;;;4.93;4.10;;;19.10;75.70;;;;;;10449566;28;20225;-67
2021/09/08 21:19:11;;;;;;;5.33;4.30;;;19.10;75.80;;;;;;10455478;28;20193;-65
2021/09/08 21:24:33;;;;;;;5.00;4.50;;;19.00;75.70;;;;;;10462535;28;20586;-67
2021/09/08 21:29:55;;;;;;;5.03;4.53;;;19.10;75.80;;;;;;10454697;28;20215;-67
2021/09/08 21:35:20;;;;;;;5.27;4.40;;;19.10;75.80;;;;;;10447584;28;20609;-66
2021/09/08 21:40:42;;;;;;;5.20;4.50;;;19.00;75.80;;;;;;10456524;28;20203;-67
2021/09/08 21:46:04;;;;;;;5.20;4.53;;;19.10;75.90;;;;;;10456073;28;20212;-66
2021/09/08 21:51:28;;;;;;;5.27;4.27;;;19.10;75.90;;;;;;10454852;28;20197;-67
2021/09/08 21:56:50;;;;;;;5.47;4.97;;;19.10;75.90;;;;;;10454642;28;20217;-67
2021/09/08 22:02:12;;;;;;;5.07;4.37;;;19.10;75.90;;;;;;10447732;28;20201;-67
2021/09/08 22:07:35;;;;;;;6.43;4.77;;;19.10;76.00;;;;;;10438699;28;20223;-66
2021/09/08 22:12:58;;;;;;;5.03;4.40;;;19.00;75.90;;;;;;10453117;28;20212;-66
2021/09/08 22:18:20;;;;;;;5.47;4.83;;;19.10;76.00;;;;;;10454553;28;20237;-66
2021/09/08 22:23:43;;;;;;;5.87;4.87;;;19.00;75.90;;;;;;10453797;28;20219;-66
2021/09/08 22:29:05;;;;;;;5.27;4.77;;;19.10;76.00;;;;;;10458046;28;20205;-65
2021/09/08 22:34:27;;;;;;;5.70;4.70;;;19.10;76.00;;;;;;10482216;28;20225;-66
2021/09/08 22:39:51;;;;;;;5.07;4.57;;;19.10;76.00;;;;;;10452944;28;20208;-66
2021/09/08 22:45:13;;;;;;;5.23;4.70;;;19.10;76.00;;;;;;10452984;28;20693;-67
2021/09/08 22:50:36;;;;;;;4.97;4.47;;;19.00;76.00;;;;;;10431604;28;20208;-67
2021/09/08 22:55:59;;;;;;;5.43;4.40;;;19.10;76.10;;;;;;10410884;28;20221;-66
2021/09/08 23:01:21;;;;;;;6.20;5.20;;;19.10;76.10;;;;;;10421301;28;20201;-66
2021/09/08 23:06:43;;;;;;;5.20;4.70;;;19.10;76.10;;;;;;10452165;28;20213;-66
2021/09/08 23:12:08;;;;;;;5.43;4.83;;;19.10;76.10;;;;;;10453100;28;20696;-64
2021/09/08 23:17:30;;;;;;;5.10;4.50;;;19.00;76.20;;;;;;10451517;28;20227;-67
2021/09/08 23:22:52;;;;;;;5.00;4.50;;;19.00;76.10;;;;;;10451434;28;20192;-67
2021/09/08 23:28:17;;;;;;;5.23;4.73;;;19.00;76.20;;;;;;10452637;28;20681;-66
2021/09/08 23:33:39;;;;;;;6.83;5.00;;;19.10;76.40;;;;;;10450542;28;20225;-66
2021/09/08 23:39:02;;;;;;;5.50;5.00;;;19.10;76.40;;;;;;10451477;28;20201;-66
2021/09/08 23:44:26;;;;;;;5.30;4.80;;;19.10;76.40;;;;;;10452450;28;20239;-67
2021/09/08 23:49:48;;;;;;;5.00;4.50;;;19.00;76.30;;;;;;10450861;28;20677;-67
2021/09/08 23:55:10;;;;;;;5.00;4.53;;;19.00;76.30;;;;;;10451751;28;20220;-67
